Time;durP1;ratioP1;P1;durP2;ratioP2;P2;SDS_P1;SDS_P2;PMS_P1;PMS_P2;Temp;Humidity;BMP_temperature;BMP_pressure;BME280_temperature;BME280_humidity;BME280_pressure;Samples;Min_cycle;Max_cycle;Signal;HPM_P1;HPM_P2
2022/12/20 00:00:20;;;;;;;6.22;2.75;;;11.20;99.90;;;;;;5074934;28;20430;-76
2022/12/20 00:02:47;;;;;;;4.47;2.63;;;11.20;99.90;;;;;;5055674;28;20040;-77
2022/12/20 00:05:13;;;;;;;5.88;2.45;;;11.20;99.90;;;;;;5057298;28;20024;-77
2022/12/20 00:07:39;;;;;;;5.38;2.60;;;11.30;99.90;;;;;;5054269;28;20044;-77
2022/12/20 00:10:05;;;;;;;8.45;3.45;;;11.20;99.90;;;;;;5070343;28;20025;-78
2022/12/20 00:12:31;;;;;;;5.75;2.85;;;11.20;99.90;;;;;;5057116;28;20024;-78
2022/12/20 00:14:57;;;;;;;4.43;2.83;;;11.10;99.90;;;;;;5057251;28;20488;-77
2022/12/20 00:17:22;;;;;;;6.97;2.63;;;11.10;99.90;;;;;;5060898;28;20426;-76
2022/12/20 00:19:48;;;;;;;5.35;2.83;;;11.20;99.90;;;;;;5057491;28;20086;-78
2022/12/20 00:22:13;;;;;;;7.55;3.45;;;11.10;99.90;;;;;;5061149;28;20028;-77
2022/12/20 00:24:39;;;;;;;8.65;3.05;;;11.10;99.90;;;;;;5057834;28;20021;-78
2022/12/20 00:27:05;;;;;;;6.82;3.50;;;11.00;99.90;;;;;;5062871;28;20465;-76
2022/12/20 00:29:31;;;;;;;8.15;2.80;;;11.00;99.90;;;;;;5057438;28;20067;-77
2022/12/20 00:31:56;;;;;;;4.80;2.75;;;11.00;99.90;;;;;;5058820;28;20439;-75
2022/12/20 00:34:22;;;;;;;7.15;3.17;;;11.00;99.90;;;;;;5056228;28;20039;-77
2022/12/20 00:36:48;;;;;;;6.80;2.85;;;11.00;99.90;;;;;;5061491;28;20025;-77
2022/12/20 00:39:14;;;;;;;6.63;3.05;;;10.90;99.90;;;;;;5061203;28;20021;-76
2022/12/20 00:41:43;;;;;;;5.35;2.97;;;10.80;99.90;;;;;;5056701;28;20079;-80
2022/12/20 00:44:09;;;;;;;6.10;3.00;;;10.90;99.90;;;;;;5058578;28;20020;-82
2022/12/20 00:46:39;;;;;;;5.53;3.00;;;10.80;99.90;;;;;;5055557;28;20112;-82
2022/12/20 00:49:06;;;;;;;13.00;3.05;;;10.70;99.90;;;;;;5053381;28;20059;-81
2022/12/20 00:51:31;;;;;;;6.05;2.90;;;10.70;99.90;;;;;;5070152;28;20051;-83
2022/12/20 00:53:58;;;;;;;5.78;3.33;;;10.80;99.90;;;;;;5064545;28;20438;-85
2022/12/20 00:56:24;;;;;;;6.22;2.85;;;10.80;99.90;;;;;;5057380;28;20381;-82
2022/12/20 00:58:53;;;;;;;6.10;3.47;;;10.80;99.90;;;;;;5052237;28;20029;-84
2022/12/20 01:01:25;;;;;;;6.82;3.13;;;10.70;99.90;;;;;;5055337;28;20120;-84
2022/12/20 01:03:52;;;;;;;8.57;3.75;;;10.70;99.90;;;;;;5052410;28;20021;-83
2022/12/20 01:06:23;;;;;;;5.20;3.20;;;10.70;99.90;;;;;;5055288;28;20374;-81
2022/12/20 01:08:50;;;;;;;6.88;3.40;;;10.80;99.90;;;;;;5056102;28;20513;-83
2022/12/20 01:11:22;;;;;;;5.97;3.55;;;10.70;99.90;;;;;;5058667;28;20365;-82
2022/12/20 01:13:50;;;;;;;5.00;2.97;;;10.80;99.90;;;;;;5067357;28;20040;-82
2022/12/20 01:16:20;;;;;;;6.28;3.25;;;10.80;99.90;;;;;;5071386;28;20048;-81
2022/12/20 01:18:46;;;;;;;7.20;3.45;;;10.80;99.90;;;;;;5074131;28;20040;-82
2022/12/20 01:21:14;;;;;;;5.22;3.08;;;10.80;99.90;;;;;;5073429;28;20089;-82
2022/12/20 01:23:41;;;;;;;9.55;3.90;;;10.80;99.90;;;;;;5074127;28;20013;-82
2022/12/20 01:26:09;;;;;;;6.22;3.03;;;10.90;99.90;;;;;;5082786;28;20027;-82
2022/12/20 01:28:37;;;;;;;8.63;3.45;;;10.80;99.90;;;;;;5094322;28;20117;-80
2022/12/20 01:31:09;;;;;;;5.57;2.88;;;10.80;99.90;;;;;;5093940;28;20040;-82
2022/12/20 01:33:35;;;;;;;4.47;2.97;;;10.90;99.90;;;;;;5094170;28;20449;-81
2022/12/20 01:36:04;;;;;;;7.40;3.17;;;10.90;99.90;;;;;;5094015;28;20464;-81
2022/12/20 01:38:30;;;;;;;4.05;2.55;;;10.90;99.90;;;;;;5094128;28;20017;-82
2022/12/20 01:40:56;;;;;;;6.38;3.00;;;11.00;99.90;;;;;;5092637;28;20036;-80
2022/12/20 01:43:23;;;;;;;4.53;2.40;;;11.00;99.90;;;;;;5092878;28;20020;-81
2022/12/20 01:45:49;;;;;;;6.13;2.83;;;10.90;99.90;;;;;;5092390;28;20107;-80
2022/12/20 01:48:22;;;;;;;6.07;3.10;;;11.00;99.90;;;;;;5092620;28;20028;-81
2022/12/20 01:50:48;;;;;;;5.78;2.90;;;11.10;99.90;;;;;;5092861;28;20028;-80
2022/12/20 01:53:16;;;;;;;5.43;2.50;;;11.10;99.90;;;;;;5092095;28;20036;-81
2022/12/20 01:55:43;;;;;;;7.75;3.00;;;11.20;99.90;;;;;;5092369;28;20035;-80
2022/12/20 01:58:11;;;;;;;4.68;2.40;;;11.20;99.90;;;;;;5092539;28;20024;-82
2022/12/20 02:00:37;;;;;;;8.65;3.00;;;11.20;99.90;;;;;;5092306;28;20065;-76
2022/12/20 02:03:07;;;;;;;11.35;2.95;;;11.20;99.90;;;;;;5077966;28;20024;-75
2022/12/20 02:05:36;;;;;;;4.70;2.53;;;11.20;99.90;;;;;;5093477;28;20023;-75
2022/12/20 02:08:04;;;;;;;9.32;2.42;;;11.20;99.90;;;;;;5092032;28;20109;-75
2022/12/20 02:11:03;;;;;;;5.97;2.63;;;11.30;99.90;;;;;;5093247;28;20047;-75
2022/12/20 02:13:51;;;;;;;6.65;2.35;;;11.30;99.90;;;;;;5092326;28;20365;-75
2022/12/20 02:16:25;;;;;;;6.97;2.30;;;11.30;99.90;;;;;;5091653;28;20024;-75
2022/12/20 02:18:58;;;;;;;3.15;2.25;;;11.40;99.90;;;;;;5092265;28;20043;-74
2022/12/20 02:21:41;;;;;;;6.13;2.72;;;11.40;99.90;;;;;;5092802;28;20076;-74
2022/12/20 02:24:50;;;;;;;6.35;3.28;;;11.30;99.90;;;;;;5091615;28;20024;-74
2022/12/20 02:27:45;;;;;;;6.05;2.50;;;11.30;99.90;;;;;;5092128;28;20609;-76
2022/12/20 02:30:13;;;;;;;7.40;2.85;;;11.20;99.90;;;;;;5092695;28;20024;-81
2022/12/20 02:32:54;;;;;;;4.88;3.00;;;11.20;99.90;;;;;;5084086;28;20472;-82
2022/12/20 02:35:27;;;;;;;4.45;2.40;;;11.30;99.90;;;;;;5091471;28;20421;-79
2022/12/20 02:37:56;;;;;;;10.00;2.90;;;11.20;99.90;;;;;;5091788;28;20028;-81
2022/12/20 02:40:28;;;;;;;6.78;3.40;;;11.20;99.90;;;;;;5091525;28;20046;-75
2022/12/20 02:43:01;;;;;;;10.63;3.63;;;11.20;99.90;;;;;;5091960;28;20032;-82
2022/12/20 02:45:33;;;;;;;11.07;3.63;;;11.20;99.90;;;;;;5091454;28;20246;-75
2022/12/20 02:47:59;;;;;;;7.65;3.00;;;11.30;99.90;;;;;;5091848;28;20066;-82
2022/12/20 02:50:56;;;;;;;7.93;2.88;;;11.40;99.90;;;;;;5091323;28;20026;-81
2022/12/20 02:53:22;;;;;;;5.30;2.63;;;11.30;99.90;;;;;;5083229;28;20036;-81
2022/12/20 02:56:17;;;;;;;4.03;2.75;;;11.40;99.90;;;;;;5091575;28;20032;-82
2022/12/20 02:58:57;;;;;;;3.42;2.08;;;11.30;99.90;;;;;;5090757;28;20024;-76
2022/12/20 03:01:36;;;;;;;5.38;2.13;;;11.50;99.90;;;;;;5092187;28;20036;-78
2022/12/20 03:04:04;;;;;;;5.35;2.53;;;11.50;99.90;;;;;;5091523;28;20030;-82
2022/12/20 03:06:29;;;;;;;4.72;2.72;;;11.50;99.90;;;;;;5091385;28;20024;-81
2022/12/20 03:08:56;;;;;;;7.15;2.60;;;11.50;99.90;;;;;;5091288;28;20024;-82
2022/12/20 03:11:25;;;;;;;4.55;2.65;;;11.60;99.90;;;;;;5091460;28;20073;-81
2022/12/20 03:13:51;;;;;;;6.40;2.88;;;11.70;99.90;;;;;;5057404;28;20025;-78
2022/12/20 03:16:17;;;;;;;5.50;2.15;;;11.70;99.90;;;;;;5067004;28;20086;-80
2022/12/20 03:18:44;;;;;;;5.50;2.80;;;11.80;99.90;;;;;;5053155;28;20421;-79
2022/12/20 03:21:10;;;;;;;7.38;2.03;;;11.80;99.90;;;;;;5035338;28;20493;-79
2022/12/20 03:23:36;;;;;;;5.90;2.45;;;11.80;99.90;;;;;;5052481;28;20036;-80
2022/12/20 03:26:03;;;;;;;7.18;2.85;;;11.70;99.90;;;;;;5050848;28;20025;-80
2022/12/20 03:28:40;;;;;;;7.05;2.78;;;11.80;99.90;;;;;;5037530;28;20021;-78
2022/12/20 03:31:07;;;;;;;6.82;3.38;;;11.80;99.90;;;;;;5056969;28;20026;-78
2022/12/20 03:33:41;;;;;;;5.38;2.72;;;11.80;99.90;;;;;;5053072;28;20017;-79
2022/12/20 03:36:07;;;;;;;6.57;2.53;;;11.80;99.90;;;;;;5058016;28;20493;-80
2022/12/20 03:38:33;;;;;;;8.32;2.28;;;11.80;99.90;;;;;;5074723;28;20052;-81
2022/12/20 03:40:59;;;;;;;3.72;2.80;;;11.80;99.90;;;;;;5087970;28;20120;-80
2022/12/20 03:43:24;;;;;;;8.20;2.67;;;11.80;99.90;;;;;;5077696;28;20025;-82
2022/12/20 03:45:50;;;;;;;4.40;2.10;;;11.60;99.90;;;;;;5096333;28;20093;-80
2022/12/20 03:48:19;;;;;;;8.60;2.75;;;11.60;99.90;;;;;;5095972;28;20060;-80
2022/12/20 03:50:46;;;;;;;5.95;2.13;;;11.80;99.90;;;;;;5095162;28;20027;-79
2022/12/20 03:53:12;;;;;;;6.35;2.72;;;11.80;99.90;;;;;;5094563;28;20476;-79
2022/12/20 03:55:38;;;;;;;4.68;1.88;;;11.90;99.90;;;;;;5094820;28;20039;-80
2022/12/20 03:58:04;;;;;;;8.60;2.40;;;11.80;99.90;;;;;;5095753;28;20380;-80
2022/12/20 04:00:32;;;;;;;5.57;2.67;;;11.70;99.90;;;;;;5094410;28;20122;-80
2022/12/20 04:03:18;;;;;;;6.25;2.17;;;11.70;99.90;;;;;;5095634;28;20429;-80
2022/12/20 04:05:43;;;;;;;5.50;2.60;;;11.70;99.90;;;;;;5094667;28;20124;-79
2022/12/20 04:08:10;;;;;;;6.20;2.75;;;11.70;99.90;;;;;;5094535;28;20103;-81
2022/12/20 04:11:14;;;;;;;5.28;2.47;;;11.60;99.90;;;;;;5079617;28;20066;-81
2022/12/20 04:13:23;;;;;;;4.38;2.72;;;11.70;99.90;;;;;;5057119;28;20500;-80
2022/12/20 04:15:49;;;;;;;6.68;2.70;;;11.80;99.90;;;;;;5056003;28;20191;-81
2022/12/20 04:18:18;;;;;;;7.10;2.15;;;11.70;99.90;;;;;;5053754;28;21389;-80
2022/12/20 04:20:44;;;;;;;5.47;2.63;;;11.80;99.90;;;;;;5054122;28;20037;-80
2022/12/20 04:23:19;;;;;;;7.60;2.88;;;11.70;99.90;;;;;;5054348;28;20017;-80
2022/12/20 04:25:47;;;;;;;5.68;2.47;;;11.80;99.90;;;;;;5058031;28;20020;-80
2022/12/20 04:28:15;;;;;;;5.63;2.25;;;11.80;99.90;;;;;;5054778;28;20112;-79
2022/12/20 04:30:42;;;;;;;6.05;2.47;;;11.80;99.90;;;;;;5056279;28;20025;-80
2022/12/20 04:33:08;;;;;;;5.07;2.45;;;11.90;99.90;;;;;;5054073;28;20025;-80
2022/12/20 04:35:35;;;;;;;4.82;2.90;;;11.70;99.90;;;;;;5054728;28;20017;-80
2022/12/20 04:38:01;;;;;;;5.53;2.80;;;11.80;99.90;;;;;;5073597;28;20028;-79
2022/12/20 04:40:27;;;;;;;6.20;2.42;;;11.70;99.90;;;;;;5082782;28;20150;-76
2022/12/20 04:42:56;;;;;;;7.47;2.60;;;11.80;99.90;;;;;;5093893;28;20024;-75
2022/12/20 04:45:22;;;;;;;3.60;2.40;;;11.70;99.90;;;;;;5092503;28;20498;-75
2022/12/20 04:47:49;;;;;;;8.93;2.60;;;11.70;99.90;;;;;;5093970;28;20028;-76
2022/12/20 04:50:21;;;;;;;6.88;2.83;;;11.70;99.90;;;;;;5093736;28;20016;-80
2022/12/20 04:55:39;;;;;;;5.88;2.97;;;11.70;99.90;;;;;;5055886;28;20032;-80
2022/12/20 04:58:06;;;;;;;8.63;2.40;;;11.70;99.90;;;;;;5093567;28;20020;-79
2022/12/20 05:00:32;;;;;;;5.18;2.40;;;11.80;99.90;;;;;;5094683;28;20021;-81
2022/12/20 05:03:06;;;;;;;5.95;2.90;;;11.80;99.90;;;;;;5081257;28;20033;-80
2022/12/20 05:05:32;;;;;;;5.60;2.22;;;11.80;99.90;;;;;;5058365;28;20029;-80
2022/12/20 05:07:57;;;;;;;8.65;2.95;;;11.80;99.90;;;;;;5054159;28;20039;-80
2022/12/20 05:10:24;;;;;;;4.53;2.15;;;11.80;99.90;;;;;;5053721;28;20487;-81
2022/12/20 05:12:52;;;;;;;3.03;2.20;;;11.80;99.90;;;;;;5052538;28;20053;-81
2022/12/20 05:15:29;;;;;;;5.88;1.98;;;11.80;99.90;;;;;;5052169;28;20044;-76
2022/12/20 05:17:58;;;;;;;7.72;2.10;;;11.80;99.90;;;;;;5058530;28;20033;-80
2022/12/20 05:20:34;;;;;;;5.60;1.90;;;11.80;99.90;;;;;;5058228;28;20103;-81
2022/12/20 05:28:35;;;;;;;4.10;2.03;;;11.90;99.90;;;;;;5066111;28;20065;-82
2022/12/20 05:31:01;;;;;;;3.63;2.00;;;11.80;99.90;;;;;;5072410;28;20021;-82
2022/12/20 05:33:30;;;;;;;7.03;2.13;;;11.70;99.90;;;;;;5072543;28;20457;-82
2022/12/20 05:35:56;;;;;;;3.10;1.85;;;11.80;99.90;;;;;;5072616;28;20017;-82
2022/12/20 05:38:22;;;;;;;7.22;2.05;;;11.80;99.90;;;;;;5072229;28;20068;-82
2022/12/20 05:40:50;;;;;;;9.60;2.03;;;11.70;99.90;;;;;;5084594;28;20032;-82
2022/12/20 05:43:17;;;;;;;6.30;2.40;;;11.80;99.90;;;;;;5092882;28;20099;-82
2022/12/20 05:45:46;;;;;;;5.85;2.22;;;11.70;99.90;;;;;;5092643;28;20460;-82
2022/12/20 05:48:15;;;;;;;5.10;1.90;;;11.70;99.90;;;;;;5094445;28;20047;-82
2022/12/20 05:50:43;;;;;;;13.05;1.85;;;11.60;99.90;;;;;;5092754;28;20461;-81
2022/12/20 05:53:29;;;;;;;6.50;2.58;;;11.70;99.90;;;;;;5092535;28;20068;-81
2022/12/20 05:55:58;;;;;;;8.77;2.08;;;11.70;99.90;;;;;;5092780;28;20503;-81
2022/12/20 05:58:28;;;;;;;10.68;2.58;;;11.70;99.90;;;;;;5093662;28;20024;-82
2022/12/20 06:01:03;;;;;;;8.05;1.95;;;11.70;99.90;;;;;;5092295;28;20040;-81
2022/12/20 06:03:33;;;;;;;8.18;2.33;;;11.70;99.90;;;;;;5092092;28;20388;-82
2022/12/20 06:06:02;;;;;;;4.78;1.95;;;11.70;99.90;;;;;;5093651;28;20078;-83
2022/12/20 06:08:31;;;;;;;2.95;1.63;;;11.70;99.90;;;;;;5091958;28;20022;-82
2022/12/20 06:10:58;;;;;;;6.55;1.80;;;11.80;99.90;;;;;;5075546;28;20036;-81
2022/12/20 06:13:24;;;;;;;8.35;2.40;;;11.80;99.90;;;;;;5092063;28;20022;-81
2022/12/20 06:15:52;;;;;;;3.90;2.13;;;11.80;99.90;;;;;;5089620;28;20031;-80
2022/12/20 06:18:19;;;;;;;8.02;1.88;;;11.70;99.90;;;;;;5053075;28;20033;-83
2022/12/20 06:20:52;;;;;;;5.45;2.28;;;11.70;99.90;;;;;;5055541;28;20224;-79
2022/12/20 06:23:22;;;;;;;4.13;2.10;;;11.80;99.90;;;;;;5080073;28;20074;-77
2022/12/20 06:26:08;;;;;;;2.53;1.67;;;11.80;99.90;;;;;;5072480;28;20048;-81
2022/12/20 06:28:41;;;;;;;8.85;1.90;;;11.80;99.90;;;;;;5071489;28;20047;-80
2022/12/20 06:31:09;;;;;;;4.00;1.73;;;11.80;99.90;;;;;;5071429;28;20372;-83
2022/12/20 06:33:45;;;;;;;4.47;2.15;;;11.90;99.90;;;;;;5071948;28;20448;-80
2022/12/20 06:36:13;;;;;;;4.93;2.03;;;11.90;99.90;;;;;;5071031;28;20023;-81
2022/12/20 06:38:39;;;;;;;7.28;2.30;;;11.90;99.90;;;;;;5071464;28;20020;-80
2022/12/20 06:41:05;;;;;;;3.75;1.98;;;11.80;99.90;;;;;;5085762;28;20400;-80
2022/12/20 06:43:31;;;;;;;4.15;1.67;;;11.90;99.90;;;;;;5074839;28;20107;-80
2022/12/20 06:45:57;;;;;;;4.35;2.15;;;11.80;99.90;;;;;;5091406;28;20023;-80
2022/12/20 06:48:23;;;;;;;7.15;1.88;;;11.90;99.90;;;;;;5091684;28;20059;-80
2022/12/20 06:50:49;;;;;;;7.80;2.30;;;12.00;99.90;;;;;;5090514;28;20028;-80
2022/12/20 06:53:16;;;;;;;5.28;2.20;;;12.00;99.90;;;;;;5091152;28;20361;-77
2022/12/20 06:55:42;;;;;;;6.68;2.22;;;11.90;99.90;;;;;;5091300;28;20025;-80
2022/12/20 06:58:08;;;;;;;37.13;2.50;;;11.90;99.90;;;;;;5060530;28;20385;-80
2022/12/20 07:00:36;;;;;;;7.53;1.90;;;11.90;99.90;;;;;;5091489;28;20391;-82
2022/12/20 07:03:02;;;;;;;4.13;1.80;;;11.90;99.90;;;;;;5091292;28;20115;-82
2022/12/20 07:05:27;;;;;;;3.92;1.92;;;11.80;99.90;;;;;;5091988;28;20027;-81
2022/12/20 07:07:53;;;;;;;3.65;1.80;;;11.80;99.90;;;;;;5091852;28;20384;-81
2022/12/20 07:10:19;;;;;;;5.50;2.35;;;11.90;99.90;;;;;;5097993;28;20071;-81
2022/12/20 07:12:44;;;;;;;4.35;1.95;;;11.70;99.90;;;;;;5099315;28;20032;-84
2022/12/20 07:15:10;;;;;;;3.90;1.60;;;11.70;99.90;;;;;;5099127;28;20038;-77
2022/12/20 07:17:36;;;;;;;5.05;1.63;;;11.60;99.90;;;;;;5099564;28;20036;-75
2022/12/20 07:20:02;;;;;;;4.68;1.67;;;11.50;99.90;;;;;;5099198;28;20065;-75
2022/12/20 07:22:27;;;;;;;4.22;2.17;;;11.50;99.90;;;;;;5099205;28;20028;-75
2022/12/20 07:24:53;;;;;;;6.32;1.73;;;11.50;99.90;;;;;;5099365;28;20400;-76
2022/12/20 07:27:18;;;;;;;8.05;2.80;;;11.50;99.90;;;;;;5099298;28;20085;-83
2022/12/20 07:29:44;;;;;;;5.57;1.98;;;11.50;99.90;;;;;;5099996;28;20036;-81
2022/12/20 07:32:12;;;;;;;6.03;2.25;;;11.40;99.90;;;;;;5099184;28;20029;-82
2022/12/20 07:34:37;;;;;;;8.30;2.13;;;11.30;99.90;;;;;;5099235;28;20039;-85
2022/12/20 07:37:03;;;;;;;7.55;2.35;;;11.10;99.90;;;;;;5099324;28;20020;-84
2022/12/20 07:39:29;;;;;;;8.68;2.10;;;11.10;99.90;;;;;;5095863;28;20059;-84
2022/12/20 07:41:55;;;;;;;6.28;2.60;;;11.00;99.90;;;;;;5100733;28;20058;-85
2022/12/20 07:44:22;;;;;;;6.45;2.47;;;11.00;99.90;;;;;;5102651;28;20375;-83
2022/12/20 07:46:48;;;;;;;3.35;1.60;;;10.90;99.90;;;;;;5090535;28;20028;-86
2022/12/20 07:49:14;;;;;;;8.52;2.50;;;10.90;99.90;;;;;;5104576;28;20032;-84
2022/12/20 07:51:52;;;;;;;10.52;2.53;;;10.90;99.90;;;;;;5104258;28;20027;-78
2022/12/20 07:54:32;;;;;;;4.78;2.45;;;10.90;99.90;;;;;;5104343;28;20551;-85
2022/12/20 07:57:02;;;;;;;6.82;2.30;;;10.80;99.90;;;;;;5099710;28;20507;-83
2022/12/20 07:59:39;;;;;;;7.18;2.80;;;10.80;99.90;;;;;;5100529;28;20176;-84
2022/12/20 08:02:06;;;;;;;6.13;2.42;;;10.80;99.90;;;;;;5099241;28;20075;-84
2022/12/20 08:04:33;;;;;;;8.95;2.97;;;10.80;99.90;;;;;;5090373;28;20029;-85
2022/12/20 08:07:01;;;;;;;5.72;2.92;;;10.70;99.90;;;;;;5067426;28;20028;-85
2022/12/20 08:09:33;;;;;;;5.40;2.92;;;10.70;99.90;;;;;;5078954;28;20456;-86
2022/12/20 08:11:59;;;;;;;10.65;2.05;;;10.70;99.90;;;;;;5079898;28;20546;-84
2022/12/20 08:14:25;;;;;;;6.25;2.58;;;10.70;99.90;;;;;;5076509;28;20390;-84
2022/12/20 08:16:51;;;;;;;5.70;2.22;;;10.70;99.90;;;;;;5078007;28;20024;-86
2022/12/20 08:19:17;;;;;;;8.40;3.00;;;10.70;99.90;;;;;;5077620;28;20139;-87
2022/12/20 08:21:43;;;;;;;3.63;2.33;;;10.60;99.90;;;;;;5074091;28;20485;-88
2022/12/20 08:24:08;;;;;;;7.78;2.15;;;10.60;99.90;;;;;;5076029;28;20023;-86
2022/12/20 08:26:39;;;;;;;6.32;2.88;;;10.60;99.90;;;;;;5058581;28;20029;-86
2022/12/20 08:29:04;;;;;;;7.30;2.70;;;10.60;99.90;;;;;;5073248;28;20025;-87
2022/12/20 08:31:30;;;;;;;10.38;3.00;;;10.60;99.90;;;;;;5076528;28;20027;-84
2022/12/20 08:33:56;;;;;;;8.38;3.00;;;10.60;99.90;;;;;;5075126;28;20118;-84
2022/12/20 08:36:21;;;;;;;11.68;2.78;;;10.60;99.90;;;;;;5074779;28;20055;-88
2022/12/20 08:38:47;;;;;;;9.25;2.88;;;10.60;99.90;;;;;;5075227;28;20085;-85
2022/12/20 08:41:14;;;;;;;10.32;3.10;;;10.60;99.90;;;;;;5089714;28;20044;-87
2022/12/20 08:43:41;;;;;;;8.80;3.80;;;10.60;99.90;;;;;;5084729;28;20090;-85
2022/12/20 08:46:08;;;;;;;11.73;2.75;;;10.60;99.90;;;;;;5075606;28;20029;-84
2022/12/20 08:48:35;;;;;;;11.27;2.83;;;10.60;99.90;;;;;;5061626;28;20029;-86
2022/12/20 08:51:04;;;;;;;7.60;3.10;;;10.60;99.90;;;;;;5074286;28;20078;-86
2022/12/20 08:53:30;;;;;;;11.57;3.20;;;10.60;99.90;;;;;;5074461;28;20033;-85
2022/12/20 08:56:11;;;;;;;6.15;2.65;;;10.70;99.90;;;;;;5076631;28;20073;-87
2022/12/20 08:58:38;;;;;;;7.25;2.65;;;10.60;99.90;;;;;;5075467;28;20111;-86
2022/12/20 09:01:07;;;;;;;6.22;2.72;;;10.60;99.90;;;;;;5076283;28;20089;-83
2022/12/20 09:03:35;;;;;;;4.88;2.47;;;10.60;99.90;;;;;;5084515;28;20016;-83
2022/12/20 09:06:05;;;;;;;7.93;3.03;;;10.60;99.90;;;;;;5081879;28;20027;-86
2022/12/20 09:08:31;;;;;;;9.20;3.13;;;10.60;99.90;;;;;;5073755;28;20448;-86
2022/12/20 09:11:11;;;;;;;5.97;2.63;;;10.60;99.90;;;;;;5074940;28;20487;-84
2022/12/20 09:13:37;;;;;;;4.60;2.50;;;10.60;99.90;;;;;;5071671;28;20021;-86
2022/12/20 09:16:04;;;;;;;4.53;2.60;;;10.60;99.90;;;;;;5074231;28;20469;-85
2022/12/20 09:18:31;;;;;;;6.43;3.15;;;10.70;99.90;;;;;;5073974;28;20035;-84
2022/12/20 09:21:02;;;;;;;6.95;2.97;;;10.60;99.90;;;;;;5074025;28;20032;-85
2022/12/20 09:23:28;;;;;;;8.30;3.13;;;10.60;99.90;;;;;;5073242;28;20016;-87
2022/12/20 09:25:54;;;;;;;7.68;3.30;;;10.70;99.90;;;;;;5074071;28;20063;-85
2022/12/20 09:28:23;;;;;;;6.20;2.60;;;10.70;99.90;;;;;;5074204;28;20028;-85
2022/12/20 09:30:48;;;;;;;8.05;3.00;;;10.80;99.90;;;;;;5064762;28;20041;-85
2022/12/20 09:33:14;;;;;;;7.90;3.20;;;10.80;99.90;;;;;;5053967;28;20044;-85
2022/12/20 09:35:46;;;;;;;8.32;3.30;;;10.90;99.90;;;;;;5061033;28;20025;-83
2022/12/20 09:38:12;;;;;;;9.88;3.30;;;10.90;99.90;;;;;;5074593;28;20115;-86
2022/12/20 09:40:48;;;;;;;3.90;2.20;;;11.00;99.90;;;;;;5085159;28;20481;-86
2022/12/20 09:43:15;;;;;;;9.82;2.88;;;10.90;99.90;;;;;;5094328;28;20208;-85
2022/12/20 09:45:43;;;;;;;5.45;2.50;;;10.90;99.90;;;;;;5096283;28;20024;-86
2022/12/20 09:48:17;;;;;;;8.23;3.17;;;10.90;99.90;;;;;;5101937;28;20031;-84
2022/12/20 09:51:03;;;;;;;6.95;3.10;;;10.90;99.90;;;;;;5097173;28;20020;-85
2022/12/20 09:54:03;;;;;;;4.30;2.08;;;10.80;99.90;;;;;;5103207;28;20111;-86
2022/12/20 09:56:36;;;;;;;5.05;2.63;;;10.80;99.90;;;;;;5098480;28;20047;-86
2022/12/20 09:59:03;;;;;;;9.23;3.05;;;10.80;99.90;;;;;;5099865;28;20036;-85
2022/12/20 10:01:32;;;;;;;8.32;3.05;;;10.80;99.90;;;;;;5093816;28;20042;-82
2022/12/20 10:04:32;;;;;;;6.80;2.97;;;10.90;99.90;;;;;;5096478;28;20031;-76
2022/12/20 10:07:34;;;;;;;12.63;3.53;;;10.90;99.90;;;;;;5089289;28;20140;-85
2022/12/20 10:10:23;;;;;;;5.40;2.80;;;10.90;99.90;;;;;;5096866;28;20035;-80
2022/12/20 10:12:59;;;;;;;7.78;3.03;;;10.80;99.90;;;;;;5093730;28;20089;-84
2022/12/20 10:15:30;;;;;;;9.00;3.85;;;10.80;99.90;;;;;;5094145;28;20024;-84
2022/12/20 10:18:05;;;;;;;;;;;10.80;99.90;;;;;;5094098;28;20123;-84
2022/12/20 10:20:42;;;;;;;5.93;2.80;;;10.80;99.90;;;;;;5092108;28;19966;-85
2022/12/20 10:23:25;;;;;;;4.72;3.28;;;10.80;99.90;;;;;;5091968;28;20089;-84
2022/12/20 10:25:53;;;;;;;5.18;2.67;;;10.80;99.90;;;;;;5093181;28;20103;-84
2022/12/20 10:28:25;;;;;;;5.15;3.00;;;10.90;99.90;;;;;;5093231;28;20036;-84
2022/12/20 10:30:51;;;;;;;;;;;10.80;99.90;;;;;;5093693;28;20020;-85
2022/12/20 10:33:22;;;;;;;8.45;3.13;;;10.80;99.90;;;;;;5093522;28;19908;-85
2022/12/20 10:35:49;;;;;;;8.53;3.13;;;10.90;99.90;;;;;;5093083;28;20085;-85
2022/12/20 10:38:17;;;;;;;9.65;3.25;;;10.90;99.90;;;;;;5093206;28;20032;-83
2022/12/20 10:40:58;;;;;;;10.20;3.17;;;10.80;99.90;;;;;;5093063;28;20044;-85
2022/12/20 10:43:25;;;;;;;7.75;3.47;;;10.70;99.90;;;;;;5092326;28;20032;-84
2022/12/20 10:46:01;;;;;;;7.70;3.20;;;10.80;99.90;;;;;;5093140;28;20523;-82
2022/12/20 10:48:34;;;;;;;8.85;3.80;;;10.80;99.90;;;;;;5093112;28;20026;-83
2022/12/20 10:51:01;;;;;;;7.03;3.28;;;10.80;99.90;;;;;;5091629;28;20487;-83
2022/12/20 10:53:28;;;;;;;6.53;3.70;;;10.80;99.90;;;;;;5091646;28;20024;-82
2022/12/20 10:56:18;;;;;;;11.15;3.45;;;10.80;99.90;;;;;;5093027;28;20387;-84
2022/12/20 10:59:17;;;;;;;5.78;3.20;;;10.80;99.90;;;;;;5091640;28;20028;-84
2022/12/20 11:01:45;;;;;;;11.98;3.25;;;10.90;99.90;;;;;;5084046;28;20400;-84
2022/12/20 11:04:46;;;;;;;7.05;3.22;;;10.90;99.90;;;;;;5095208;28;20039;-84
2022/12/20 11:07:28;;;;;;;5.82;2.65;;;10.90;99.90;;;;;;5089547;28;20111;-84
2022/12/20 11:09:57;;;;;;;10.30;3.78;;;10.80;99.90;;;;;;5091672;28;20024;-85
2022/12/20 11:12:23;;;;;;;11.77;3.75;;;10.80;99.90;;;;;;5091083;28;20043;-84
2022/12/20 11:14:49;;;;;;;8.02;4.18;;;10.80;99.90;;;;;;5092805;28;20081;-84
2022/12/20 11:17:45;;;;;;;13.35;4.30;;;10.90;99.90;;;;;;5091223;28;20024;-83
2022/12/20 11:20:48;;;;;;;9.77;4.00;;;11.00;99.90;;;;;;5092289;28;20074;-80
2022/12/20 11:23:34;;;;;;;10.75;4.32;;;10.90;99.90;;;;;;5081471;28;20538;-82
2022/12/20 11:26:30;;;;;;;9.27;4.13;;;10.90;99.90;;;;;;5091679;28;20034;-83
2022/12/20 11:29:17;;;;;;;7.03;3.85;;;10.80;99.90;;;;;;5092468;28;20043;-83
2022/12/20 11:32:26;;;;;;;4.40;3.67;;;10.90;99.90;;;;;;5091083;28;20032;-82
2022/12/20 11:35:04;;;;;;;8.70;3.83;;;11.00;99.90;;;;;;5071163;28;20061;-86
2022/12/20 11:37:52;;;;;;;6.45;2.70;;;11.00;99.90;;;;;;5092734;28;20036;-84
2022/12/20 11:41:03;;;;;;;7.20;3.38;;;11.00;99.90;;;;;;5088077;28;20052;-84
2022/12/20 11:43:35;;;;;;;7.10;3.20;;;11.00;99.90;;;;;;5092156;28;20086;-82
2022/12/20 11:46:19;;;;;;;11.82;4.88;;;11.10;99.90;;;;;;5092482;28;20080;-81
2022/12/20 11:48:59;;;;;;;7.53;3.70;;;11.00;99.90;;;;;;5092281;28;20107;-82
2022/12/20 11:52:00;;;;;;;11.57;4.20;;;11.10;99.90;;;;;;5090831;28;20032;-83
2022/12/20 11:54:31;;;;;;;8.30;3.88;;;11.10;99.90;;;;;;5080493;28;20042;-81
2022/12/20 11:57:05;;;;;;;8.25;3.60;;;11.10;99.90;;;;;;5095046;28;20036;-84
2022/12/20 11:59:41;;;;;;;10.15;4.90;;;11.10;99.90;;;;;;5096124;28;20095;-82
2022/12/20 12:02:37;;;;;;;11.68;3.97;;;11.00;99.90;;;;;;5096131;28;20039;-82
2022/12/20 12:05:11;;;;;;;9.80;4.05;;;11.10;99.90;;;;;;5094380;28;20044;-83
2022/12/20 12:07:40;;;;;;;12.00;3.97;;;11.10;99.90;;;;;;5095832;28;20040;-83
2022/12/20 12:10:37;;;;;;;7.68;3.55;;;11.00;99.90;;;;;;5096763;28;20020;-83
2022/12/20 12:13:12;;;;;;;9.55;4.45;;;11.00;99.90;;;;;;5094543;28;20062;-82
2022/12/20 12:16:07;;;;;;;12.10;5.18;;;11.10;99.90;;;;;;5095869;28;20106;-84
2022/12/20 12:18:34;;;;;;;10.40;5.15;;;11.00;99.90;;;;;;5095561;28;20020;-81
2022/12/20 12:21:23;;;;;;;11.00;4.95;;;11.00;99.90;;;;;;5095747;28;20040;-81
2022/12/20 12:24:02;;;;;;;10.90;5.30;;;10.90;99.90;;;;;;5095167;28;20472;-83
2022/12/20 12:26:39;;;;;;;10.07;5.45;;;11.00;99.90;;;;;;5094157;28;20047;-80
2022/12/20 12:29:08;;;;;;;9.23;4.35;;;11.00;99.90;;;;;;5095080;28;20044;-81
2022/12/20 12:31:43;;;;;;;8.77;4.20;;;11.00;99.90;;;;;;5065395;28;20044;-83
2022/12/20 12:34:09;;;;;;;11.35;4.47;;;10.90;99.90;;;;;;5074995;28;20032;-79
2022/12/20 12:36:51;;;;;;;10.57;3.92;;;10.90;99.90;;;;;;5074952;28;20035;-83
2022/12/20 12:39:26;;;;;;;8.23;3.83;;;11.00;99.90;;;;;;5074481;28;20507;-83
2022/12/20 12:42:16;;;;;;;6.72;3.17;;;11.00;99.90;;;;;;5068247;28;20081;-83
2022/12/20 12:45:01;;;;;;;5.65;3.63;;;10.90;99.90;;;;;;5095016;28;20057;-83
2022/12/20 12:47:37;;;;;;;8.50;4.35;;;10.90;99.90;;;;;;5095235;28;20574;-82
2022/12/20 12:50:08;;;;;;;7.47;4.10;;;10.90;99.90;;;;;;5094885;28;20024;-81
2022/12/20 12:52:45;;;;;;;7.38;4.13;;;10.90;99.90;;;;;;5083068;28;20484;-82
2022/12/20 12:55:38;;;;;;;8.07;4.28;;;11.00;99.90;;;;;;5079038;28;20484;-80
2022/12/20 12:58:22;;;;;;;10.85;4.78;;;11.00;99.90;;;;;;5067269;28;20028;-81
2022/12/20 13:01:04;;;;;;;12.25;4.25;;;11.00;99.90;;;;;;5066320;28;20149;-81
2022/12/20 13:03:41;;;;;;;6.47;3.90;;;11.00;99.90;;;;;;5071136;28;20052;-78
2022/12/20 13:06:22;;;;;;;7.93;4.00;;;10.80;99.90;;;;;;5073521;28;20025;-78
2022/12/20 13:09:17;;;;;;;9.35;3.78;;;10.80;99.90;;;;;;5073859;28;20031;-78
2022/12/20 13:11:43;;;;;;;8.63;3.70;;;10.80;99.90;;;;;;5073771;28;20373;-79
2022/12/20 13:14:23;;;;;;;7.28;4.10;;;10.90;99.90;;;;;;5076548;28;20016;-77
2022/12/20 13:17:01;;;;;;;8.07;3.92;;;10.90;99.90;;;;;;5066459;28;20592;-78